sensor_id;sensor_type;location;lat;lon;timestamp;pressure;altitude;pressure_sealevel;temperature
64916;BMP280;51427;-27.442;153.014;2022-09-09T00:01:27;101679.13;;;20.87
64916;BMP280;51427;-27.442;153.014;2022-09-09T00:10:39;101692.31;;;20.97
64916;BMP280;51427;-27.442;153.014;2022-09-09T00:12:54;101687.69;;;21.38
64916;BMP280;51427;-27.442;153.014;2022-09-09T00:15:38;101671.69;;;21.30
64916;BMP280;51427;-27.442;153.014;2022-09-09T00:18:22;101661.16;;;20.42
64916;BMP280;51427;-27.442;153.014;2022-09-09T00:21:11;101684.47;;;20.17
64916;BMP280;51427;-27.442;153.014;2022-09-09T00:23:50;101676.03;;;21.50
64916;BMP280;51427;-27.442;153.014;2022-09-09T00:26:21;101675.75;;;21.53
64916;BMP280;51427;-27.442;153.014;2022-09-09T00:29:43;101679.66;;;21.58
64916;BMP280;51427;-27.442;153.014;2022-09-09T00:31:55;101661.25;;;21.19
64916;BMP280;51427;-27.442;153.014;2022-09-09T00:34:28;101656.66;;;20.54
64916;BMP280;51427;-27.442;153.014;2022-09-09T00:36:56;101656.16;;;20.10
64916;BMP280;51427;-27.442;153.014;2022-09-09T00:39:34;101649.56;;;20.93
64916;BMP280;51427;-27.442;153.014;2022-09-09T00:42:23;101651.25;;;21.13
64916;BMP280;51427;-27.442;153.014;2022-09-09T00:56:18;101608.50;;;20.82
64916;BMP280;51427;-27.442;153.014;2022-09-09T01:01:32;101601.31;;;21.59
64916;BMP280;51427;-27.442;153.014;2022-09-09T01:03:59;101595.50;;;21.36
64916;BMP280;51427;-27.442;153.014;2022-09-09T01:06:37;101597.16;;;21.28
64916;BMP280;51427;-27.442;153.014;2022-09-09T01:12:16;101571.03;;;21.72
64916;BMP280;51427;-27.442;153.014;2022-09-09T01:15:20;101556.97;;;22.17
64916;BMP280;51427;-27.442;153.014;2022-09-09T01:17:58;101559.09;;;21.59
64916;BMP280;51427;-27.442;153.014;2022-09-09T01:28:54;101539.94;;;21.28
64916;BMP280;51427;-27.442;153.014;2022-09-09T01:31:37;101537.06;;;21.50
64916;BMP280;51427;-27.442;153.014;2022-09-09T01:34:15;101536.63;;;21.27
64916;BMP280;51427;-27.442;153.014;2022-09-09T01:37:05;101534.53;;;21.30
64916;BMP280;51427;-27.442;153.014;2022-09-09T01:39:35;101535.09;;;21.43
64916;BMP280;51427;-27.442;153.014;2022-09-09T01:42:04;101537.31;;;21.19
64916;BMP280;51427;-27.442;153.014;2022-09-09T01:44:34;101531.63;;;20.77
64916;BMP280;51427;-27.442;153.014;2022-09-09T01:47:04;101533.84;;;21.28
64916;BMP280;51427;-27.442;153.014;2022-09-09T01:49:32;101538.03;;;21.02
64916;BMP280;51427;-27.442;153.014;2022-09-09T01:51:59;101533.72;;;21.20
64916;BMP280;51427;-27.442;153.014;2022-09-09T01:54:29;101521.88;;;21.62
64916;BMP280;51427;-27.442;153.014;2022-09-09T02:00:00;101517.16;;;22.55
64916;BMP280;51427;-27.442;153.014;2022-09-09T02:02:32;101500.28;;;22.21
64916;BMP280;51427;-27.442;153.014;2022-09-09T02:08:26;101483.34;;;22.58
64916;BMP280;51427;-27.442;153.014;2022-09-09T02:11:23;101465.25;;;23.23
64916;BMP280;51427;-27.442;153.014;2022-09-09T02:13:53;101460.16;;;23.55
64916;BMP280;51427;-27.442;153.014;2022-09-09T02:21:20;101458.88;;;23.08
64916;BMP280;51427;-27.442;153.014;2022-09-09T02:23:49;101459.28;;;23.71
64916;BMP280;51427;-27.442;153.014;2022-09-09T02:26:19;101456.94;;;22.93
64916;BMP280;51427;-27.442;153.014;2022-09-09T02:28:50;101424.69;;;24.06
64916;BMP280;51427;-27.442;153.014;2022-09-09T02:31:21;101434.44;;;24.06
64916;BMP280;51427;-27.442;153.014;2022-09-09T02:33:55;101428.56;;;23.78
64916;BMP280;51427;-27.442;153.014;2022-09-09T02:36:25;101422.66;;;24.49
64916;BMP280;51427;-27.442;153.014;2022-09-09T02:38:54;101423.63;;;23.83
64916;BMP280;51427;-27.442;153.014;2022-09-09T02:41:31;101404.56;;;24.29
64916;BMP280;51427;-27.442;153.014;2022-09-09T02:43:59;101398.59;;;24.35
64916;BMP280;51427;-27.442;153.014;2022-09-09T02:49:21;101393.31;;;23.78
64916;BMP280;51427;-27.442;153.014;2022-09-09T02:52:05;101377.75;;;24.95
64916;BMP280;51427;-27.442;153.014;2022-09-09T02:54:35;101374.59;;;24.92
64916;BMP280;51427;-27.442;153.014;2022-09-09T02:59:40;101379.59;;;23.82
64916;BMP280;51427;-27.442;153.014;2022-09-09T03:02:08;101366.75;;;23.62
64916;BMP280;51427;-27.442;153.014;2022-09-09T03:04:39;101361.88;;;24.48
64916;BMP280;51427;-27.442;153.014;2022-09-09T03:07:06;101356.47;;;25.35
64916;BMP280;51427;-27.442;153.014;2022-09-09T03:09:34;101351.59;;;25.84
64916;BMP280;51427;-27.442;153.014;2022-09-09T03:12:02;101359.53;;;25.00
64916;BMP280;51427;-27.442;153.014;2022-09-09T03:14:33;101348.81;;;25.40
64916;BMP280;51427;-27.442;153.014;2022-09-09T03:17:01;101342.94;;;25.06
64916;BMP280;51427;-27.442;153.014;2022-09-09T03:19:29;101334.34;;;25.04
64916;BMP280;51427;-27.442;153.014;2022-09-09T03:21:57;101327.28;;;25.73
64916;BMP280;51427;-27.442;153.014;2022-09-09T03:24:25;101324.31;;;25.30
64916;BMP280;51427;-27.442;153.014;2022-09-09T03:26:53;101325.25;;;24.67
64916;BMP280;51427;-27.442;153.014;2022-09-09T03:29:22;101322.84;;;25.19
64916;BMP280;51427;-27.442;153.014;2022-09-09T03:31:50;101311.63;;;26.52
64916;BMP280;51427;-27.442;153.014;2022-09-09T03:34:17;101308.06;;;26.15
64916;BMP280;51427;-27.442;153.014;2022-09-09T03:36:45;101298.97;;;26.10
64916;BMP280;51427;-27.442;153.014;2022-09-09T03:39:15;101298.59;;;25.68
64916;BMP280;51427;-27.442;153.014;2022-09-09T03:41:43;101298.28;;;26.38
64916;BMP280;51427;-27.442;153.014;2022-09-09T03:44:12;101293.78;;;26.75
64916;BMP280;51427;-27.442;153.014;2022-09-09T03:46:40;101292.91;;;26.46
64916;BMP280;51427;-27.442;153.014;2022-09-09T03:49:08;101297.94;;;25.66
64916;BMP280;51427;-27.442;153.014;2022-09-09T03:51:37;101290.06;;;26.03
64916;BMP280;51427;-27.442;153.014;2022-09-09T03:54:05;101282.84;;;26.56
64916;BMP280;51427;-27.442;153.014;2022-09-09T03:56:35;101283.75;;;26.26
64916;BMP280;51427;-27.442;153.014;2022-09-09T03:59:04;101272.34;;;27.05
64916;BMP280;51427;-27.442;153.014;2022-09-09T04:01:31;101272.63;;;27.10
64916;BMP280;51427;-27.442;153.014;2022-09-09T04:03:59;101264.06;;;26.35
64916;BMP280;51427;-27.442;153.014;2022-09-09T04:06:29;101252.50;;;27.22
64916;BMP280;51427;-27.442;153.014;2022-09-09T04:08:56;101251.59;;;25.99
64916;BMP280;51427;-27.442;153.014;2022-09-09T04:11:24;101243.56;;;27.09
64916;BMP280;51427;-27.442;153.014;2022-09-09T04:13:52;101246.50;;;27.35
64916;BMP280;51427;-27.442;153.014;2022-09-09T04:16:19;101235.00;;;26.99
64916;BMP280;51427;-27.442;153.014;2022-09-09T04:18:47;101234.16;;;26.84
64916;BMP280;51427;-27.442;153.014;2022-09-09T04:21:15;101233.66;;;25.79
64916;BMP280;51427;-27.442;153.014;2022-09-09T04:23:44;101229.25;;;26.08
64916;BMP280;51427;-27.442;153.014;2022-09-09T04:26:14;101225.69;;;26.38
64916;BMP280;51427;-27.442;153.014;2022-09-09T04:28:41;101223.47;;;26.27
64916;BMP280;51427;-27.442;153.014;2022-09-09T04:31:14;101223.25;;;25.92
64916;BMP280;51427;-27.442;153.014;2022-09-09T04:33:46;101210.81;;;26.94
64916;BMP280;51427;-27.442;153.014;2022-09-09T04:36:14;101221.72;;;25.97
64916;BMP280;51427;-27.442;153.014;2022-09-09T04:38:42;101190.78;;;26.18
64916;BMP280;51427;-27.442;153.014;2022-09-09T04:41:11;101196.72;;;25.09
64916;BMP280;51427;-27.442;153.014;2022-09-09T04:43:40;101199.38;;;25.09
64916;BMP280;51427;-27.442;153.014;2022-09-09T04:46:07;101181.31;;;26.01
64916;BMP280;51427;-27.442;153.014;2022-09-09T04:48:35;101195.22;;;25.14
64916;BMP280;51427;-27.442;153.014;2022-09-09T04:51:05;101173.41;;;24.89
64916;BMP280;51427;-27.442;153.014;2022-09-09T04:53:33;101171.34;;;25.67
64916;BMP280;51427;-27.442;153.014;2022-09-09T04:56:15;101157.94;;;25.52
64916;BMP280;51427;-27.442;153.014;2022-09-09T04:58:43;101161.94;;;25.04
64916;BMP280;51427;-27.442;153.014;2022-09-09T05:01:17;101164.31;;;24.83
64916;BMP280;51427;-27.442;153.014;2022-09-09T05:03:45;101159.03;;;24.75
64916;BMP280;51427;-27.442;153.014;2022-09-09T05:06:15;101160.38;;;24.79
64916;BMP280;51427;-27.442;153.014;2022-09-09T05:08:44;101144.66;;;24.62
64916;BMP280;51427;-27.442;153.014;2022-09-09T05:13:45;101155.94;;;25.02
64916;BMP280;51427;-27.442;153.014;2022-09-09T05:16:13;101150.53;;;25.26
64916;BMP280;51427;-27.442;153.014;2022-09-09T05:18:42;101146.75;;;25.43
64916;BMP280;51427;-27.442;153.014;2022-09-09T05:21:10;101144.81;;;25.37
64916;BMP280;51427;-27.442;153.014;2022-09-09T05:23:38;101149.53;;;25.27
64916;BMP280;51427;-27.442;153.014;2022-09-09T05:26:07;101153.06;;;24.81
64916;BMP280;51427;-27.442;153.014;2022-09-09T05:28:36;101155.84;;;24.88
64916;BMP280;51427;-27.442;153.014;2022-09-09T05:31:08;101155.41;;;24.76
64916;BMP280;51427;-27.442;153.014;2022-09-09T05:33:38;101165.66;;;24.79
64916;BMP280;51427;-27.442;153.014;2022-09-09T05:36:15;101153.13;;;24.65
64916;BMP280;51427;-27.442;153.014;2022-09-09T05:38:44;101147.06;;;24.87
64916;BMP280;51427;-27.442;153.014;2022-09-09T05:41:13;101154.66;;;24.52
64916;BMP280;51427;-27.442;153.014;2022-09-09T05:43:45;101161.13;;;24.42
64916;BMP280;51427;-27.442;153.014;2022-09-09T05:46:16;101162.16;;;24.33
64916;BMP280;51427;-27.442;153.014;2022-09-09T05:48:45;101156.38;;;24.13
64916;BMP280;51427;-27.442;153.014;2022-09-09T05:51:15;101156.28;;;24.61
64916;BMP280;51427;-27.442;153.014;2022-09-09T05:53:45;101167.09;;;24.28
64916;BMP280;51427;-27.442;153.014;2022-09-09T05:56:15;101155.47;;;24.99
64916;BMP280;51427;-27.442;153.014;2022-09-09T05:58:44;101159.09;;;24.59
64916;BMP280;51427;-27.442;153.014;2022-09-09T06:01:21;101172.84;;;25.09
64916;BMP280;51427;-27.442;153.014;2022-09-09T06:03:50;101167.25;;;24.88
64916;BMP280;51427;-27.442;153.014;2022-09-09T06:06:26;101167.94;;;24.20
64916;BMP280;51427;-27.442;153.014;2022-09-09T06:08:56;101181.91;;;23.18
64916;BMP280;51427;-27.442;153.014;2022-09-09T06:11:29;101171.19;;;22.86
64916;BMP280;51427;-27.442;153.014;2022-09-09T06:13:58;101179.91;;;23.12
64916;BMP280;51427;-27.442;153.014;2022-09-09T06:16:27;101190.44;;;23.04
64916;BMP280;51427;-27.442;153.014;2022-09-09T06:18:56;101178.19;;;22.62
64916;BMP280;51427;-27.442;153.014;2022-09-09T06:21:27;101173.75;;;24.00
64916;BMP280;51427;-27.442;153.014;2022-09-09T06:23:54;101169.78;;;23.00
64916;BMP280;51427;-27.442;153.014;2022-09-09T06:26:24;101158.72;;;23.04
64916;BMP280;51427;-27.442;153.014;2022-09-09T06:28:54;101161.13;;;23.47
64916;BMP280;51427;-27.442;153.014;2022-09-09T06:31:23;101158.81;;;23.60
64916;BMP280;51427;-27.442;153.014;2022-09-09T06:33:52;101157.34;;;23.57
64916;BMP280;51427;-27.442;153.014;2022-09-09T06:36:24;101163.06;;;23.21
64916;BMP280;51427;-27.442;153.014;2022-09-09T06:38:52;101153.22;;;23.70
64916;BMP280;51427;-27.442;153.014;2022-09-09T06:41:21;101155.91;;;23.78
64916;BMP280;51427;-27.442;153.014;2022-09-09T06:43:52;101167.41;;;23.54
64916;BMP280;51427;-27.442;153.014;2022-09-09T06:46:22;101173.16;;;22.84
64916;BMP280;51427;-27.442;153.014;2022-09-09T06:48:50;101167.28;;;22.98
64916;BMP280;51427;-27.442;153.014;2022-09-09T06:51:23;101173.00;;;23.35
64916;BMP280;51427;-27.442;153.014;2022-09-09T06:53:54;101178.56;;;23.00
64916;BMP280;51427;-27.442;153.014;2022-09-09T06:56:34;101174.03;;;23.34
64916;BMP280;51427;-27.442;153.014;2022-09-09T06:59:06;101172.44;;;22.67
64916;BMP280;51427;-27.442;153.014;2022-09-09T07:01:36;101174.03;;;22.60
64916;BMP280;51427;-27.442;153.014;2022-09-09T07:04:04;101171.31;;;22.77
64916;BMP280;51427;-27.442;153.014;2022-09-09T07:06:39;101157.59;;;23.15
64916;BMP280;51427;-27.442;153.014;2022-09-09T07:09:10;101160.69;;;22.94
64916;BMP280;51427;-27.442;153.014;2022-09-09T07:11:43;101167.97;;;23.00
64916;BMP280;51427;-27.442;153.014;2022-09-09T07:14:16;101171.38;;;22.52
64916;BMP280;51427;-27.442;153.014;2022-09-09T07:16:44;101169.25;;;22.63
64916;BMP280;51427;-27.442;153.014;2022-09-09T07:19:13;101165.75;;;22.55
64916;BMP280;51427;-27.442;153.014;2022-09-09T07:21:42;101170.97;;;23.05
64916;BMP280;51427;-27.442;153.014;2022-09-09T07:24:10;101184.53;;;22.44
64916;BMP280;51427;-27.442;153.014;2022-09-09T07:26:39;101184.06;;;22.48
64916;BMP280;51427;-27.442;153.014;2022-09-09T07:29:07;101176.00;;;22.07
64916;BMP280;51427;-27.442;153.014;2022-09-09T07:31:37;101178.25;;;22.45
64916;BMP280;51427;-27.442;153.014;2022-09-09T07:34:05;101185.06;;;22.22
64916;BMP280;51427;-27.442;153.014;2022-09-09T07:36:36;101184.41;;;22.28
64916;BMP280;51427;-27.442;153.014;2022-09-09T07:39:07;101183.69;;;22.43
64916;BMP280;51427;-27.442;153.014;2022-09-09T07:41:46;101186.44;;;22.34
64916;BMP280;51427;-27.442;153.014;2022-09-09T07:44:17;101189.63;;;22.70
64916;BMP280;51427;-27.442;153.014;2022-09-09T07:46:45;101186.34;;;22.76
64916;BMP280;51427;-27.442;153.014;2022-09-09T07:49:13;101191.09;;;22.98
64916;BMP280;51427;-27.442;153.014;2022-09-09T07:51:44;101189.13;;;22.42
64916;BMP280;51427;-27.442;153.014;2022-09-09T07:54:14;101199.69;;;22.42
64916;BMP280;51427;-27.442;153.014;2022-09-09T07:56:45;101209.91;;;22.37
64916;BMP280;51427;-27.442;153.014;2022-09-09T07:59:13;101211.34;;;22.14
64916;BMP280;51427;-27.442;153.014;2022-09-09T08:01:43;101205.94;;;22.66
64916;BMP280;51427;-27.442;153.014;2022-09-09T08:04:17;101215.72;;;22.73
64916;BMP280;51427;-27.442;153.014;2022-09-09T08:09:15;101221.19;;;22.47
64916;BMP280;51427;-27.442;153.014;2022-09-09T08:11:47;101228.75;;;22.67
64916;BMP280;51427;-27.442;153.014;2022-09-09T08:14:15;101226.03;;;22.34
64916;BMP280;51427;-27.442;153.014;2022-09-09T08:16:45;101229.69;;;22.33
64916;BMP280;51427;-27.442;153.014;2022-09-09T08:19:13;101226.06;;;22.59
64916;BMP280;51427;-27.442;153.014;2022-09-09T08:21:45;101232.75;;;22.46
64916;BMP280;51427;-27.442;153.014;2022-09-09T08:27:34;101239.25;;;23.17
64916;BMP280;51427;-27.442;153.014;2022-09-09T08:30:02;101240.94;;;24.07
64916;BMP280;51427;-27.442;153.014;2022-09-09T08:32:29;101235.06;;;23.56
64916;BMP280;51427;-27.442;153.014;2022-09-09T08:34:59;101242.50;;;23.45
64916;BMP280;51427;-27.442;153.014;2022-09-09T08:37:27;101247.38;;;23.24
64916;BMP280;51427;-27.442;153.014;2022-09-09T08:39:55;101242.22;;;23.15
64916;BMP280;51427;-27.442;153.014;2022-09-09T08:42:41;101241.31;;;23.39
64916;BMP280;51427;-27.442;153.014;2022-09-09T08:46:09;101244.72;;;23.65
64916;BMP280;51427;-27.442;153.014;2022-09-09T08:49:01;101244.41;;;23.19
64916;BMP280;51427;-27.442;153.014;2022-09-09T08:51:31;101252.34;;;23.19
64916;BMP280;51427;-27.442;153.014;2022-09-09T08:54:02;101253.38;;;23.34
64916;BMP280;51427;-27.442;153.014;2022-09-09T08:56:32;101255.63;;;23.21
64916;BMP280;51427;-27.442;153.014;2022-09-09T08:59:02;101261.19;;;23.02
64916;BMP280;51427;-27.442;153.014;2022-09-09T09:02:02;101266.66;;;23.50
64916;BMP280;51427;-27.442;153.014;2022-09-09T09:04:52;101264.13;;;22.99
64916;BMP280;51427;-27.442;153.014;2022-09-09T09:07:44;101275.06;;;23.04
64916;BMP280;51427;-27.442;153.014;2022-09-09T09:12:49;101285.19;;;23.58
64916;BMP280;51427;-27.442;153.014;2022-09-09T09:15:38;101287.47;;;23.45
64916;BMP280;51427;-27.442;153.014;2022-09-09T09:18:07;101294.53;;;23.69
64916;BMP280;51427;-27.442;153.014;2022-09-09T09:23:42;101291.59;;;23.96
64916;BMP280;51427;-27.442;153.014;2022-09-09T09:26:12;101284.28;;;23.82
64916;BMP280;51427;-27.442;153.014;2022-09-09T09:28:40;101294.41;;;23.46
64916;BMP280;51427;-27.442;153.014;2022-09-09T09:31:11;101298.91;;;23.12
64916;BMP280;51427;-27.442;153.014;2022-09-09T09:33:50;101302.66;;;23.43
64916;BMP280;51427;-27.442;153.014;2022-09-09T09:36:23;101293.25;;;23.40
64916;BMP280;51427;-27.442;153.014;2022-09-09T09:38:59;101299.00;;;23.28
64916;BMP280;51427;-27.442;153.014;2022-09-09T09:44:03;101310.94;;;23.07
64916;BMP280;51427;-27.442;153.014;2022-09-09T09:46:31;101307.59;;;22.79
64916;BMP280;51427;-27.442;153.014;2022-09-09T09:49:04;101316.81;;;22.75
64916;BMP280;51427;-27.442;153.014;2022-09-09T09:51:37;101321.38;;;22.23
64916;BMP280;51427;-27.442;153.014;2022-09-09T09:56:43;101328.94;;;23.03
64916;BMP280;51427;-27.442;153.014;2022-09-09T10:02:17;101330.53;;;22.54
64916;BMP280;51427;-27.442;153.014;2022-09-09T10:04:45;101331.63;;;22.26
64916;BMP280;51427;-27.442;153.014;2022-09-09T10:07:22;101330.13;;;22.83
64916;BMP280;51427;-27.442;153.014;2022-09-09T10:09:54;101331.84;;;22.50
64916;BMP280;51427;-27.442;153.014;2022-09-09T10:12:30;101341.72;;;22.65
64916;BMP280;51427;-27.442;153.014;2022-09-09T10:15:18;101348.53;;;22.75
64916;BMP280;51427;-27.442;153.014;2022-09-09T10:23:37;101346.72;;;22.33
64916;BMP280;51427;-27.442;153.014;2022-09-09T10:26:35;101344.97;;;22.07
64916;BMP280;51427;-27.442;153.014;2022-09-09T10:29:22;101343.63;;;22.38
64916;BMP280;51427;-27.442;153.014;2022-09-09T10:40:47;101357.78;;;22.71
64916;BMP280;51427;-27.442;153.014;2022-09-09T10:49:09;101368.47;;;22.87
64916;BMP280;51427;-27.442;153.014;2022-09-09T10:59:58;101360.50;;;22.45
64916;BMP280;51427;-27.442;153.014;2022-09-09T11:02:33;101362.13;;;22.11
64916;BMP280;51427;-27.442;153.014;2022-09-09T11:05:03;101353.13;;;22.31
64916;BMP280;51427;-27.442;153.014;2022-09-09T11:08:13;101350.09;;;22.43
64916;BMP280;51427;-27.442;153.014;2022-09-09T11:10:39;101361.09;;;22.04
64916;BMP280;51427;-27.442;153.014;2022-09-09T11:16:39;101360.94;;;21.62
64916;BMP280;51427;-27.442;153.014;2022-09-09T11:19:36;101358.13;;;21.90
64916;BMP280;51427;-27.442;153.014;2022-09-09T11:22:26;101361.78;;;22.06
64916;BMP280;51427;-27.442;153.014;2022-09-09T11:30:56;101353.56;;;22.09
64916;BMP280;51427;-27.442;153.014;2022-09-09T11:36:43;101344.75;;;22.53
64916;BMP280;51427;-27.442;153.014;2022-09-09T11:42:28;101352.22;;;22.40
64916;BMP280;51427;-27.442;153.014;2022-09-09T11:44:56;101346.69;;;21.55
64916;BMP280;51427;-27.442;153.014;2022-09-09T11:47:31;101344.75;;;22.35
64916;BMP280;51427;-27.442;153.014;2022-09-09T11:50:34;101348.47;;;22.67
64916;BMP280;51427;-27.442;153.014;2022-09-09T11:53:21;101353.44;;;22.28
64916;BMP280;51427;-27.442;153.014;2022-09-09T11:56:12;101350.63;;;21.95
64916;BMP280;51427;-27.442;153.014;2022-09-09T11:58:53;101346.72;;;21.72
64916;BMP280;51427;-27.442;153.014;2022-09-09T12:01:39;101359.84;;;21.81
64916;BMP280;51427;-27.442;153.014;2022-09-09T12:04:37;101353.06;;;21.79
64916;BMP280;51427;-27.442;153.014;2022-09-09T12:12:46;101337.50;;;21.76
64916;BMP280;51427;-27.442;153.014;2022-09-09T12:17:52;101330.31;;;21.95
64916;BMP280;51427;-27.442;153.014;2022-09-09T12:20:37;101322.16;;;22.06
64916;BMP280;51427;-27.442;153.014;2022-09-09T12:26:07;101318.72;;;22.23
64916;BMP280;51427;-27.442;153.014;2022-09-09T12:29:12;101335.81;;;22.02
64916;BMP280;51427;-27.442;153.014;2022-09-09T12:31:56;101335.44;;;22.14
64916;BMP280;51427;-27.442;153.014;2022-09-09T12:34:47;101335.34;;;22.33
64916;BMP280;51427;-27.442;153.014;2022-09-09T12:37:26;101341.97;;;21.93
64916;BMP280;51427;-27.442;153.014;2022-09-09T12:39:59;101336.16;;;22.16
64916;BMP280;51427;-27.442;153.014;2022-09-09T12:42:29;101336.81;;;22.35
64916;BMP280;51427;-27.442;153.014;2022-09-09T12:44:58;101334.78;;;22.47
64916;BMP280;51427;-27.442;153.014;2022-09-09T12:49:56;101346.13;;;22.39
64916;BMP280;51427;-27.442;153.014;2022-09-09T12:52:34;101344.31;;;22.40
64916;BMP280;51427;-27.442;153.014;2022-09-09T12:55:05;101348.06;;;22.55
64916;BMP280;51427;-27.442;153.014;2022-09-09T12:57:39;101350.78;;;22.45
64916;BMP280;51427;-27.442;153.014;2022-09-09T13:00:12;101351.41;;;22.22
64916;BMP280;51427;-27.442;153.014;2022-09-09T13:02:52;101365.22;;;22.07
64916;BMP280;51427;-27.442;153.014;2022-09-09T13:05:40;101364.13;;;22.09
64916;BMP280;51427;-27.442;153.014;2022-09-09T13:08:10;101359.84;;;21.81
64916;BMP280;51427;-27.442;153.014;2022-09-09T13:10:59;101345.63;;;21.92
64916;BMP280;51427;-27.442;153.014;2022-09-09T13:13:30;101345.19;;;22.31
64916;BMP280;51427;-27.442;153.014;2022-09-09T13:16:02;101349.88;;;22.37
64916;BMP280;51427;-27.442;153.014;2022-09-09T13:18:41;101347.38;;;22.18
64916;BMP280;51427;-27.442;153.014;2022-09-09T13:21:08;101345.19;;;21.96
64916;BMP280;51427;-27.442;153.014;2022-09-09T13:23:37;101330.75;;;22.08
64916;BMP280;51427;-27.442;153.014;2022-09-09T13:26:18;101330.50;;;21.67
64916;BMP280;51427;-27.442;153.014;2022-09-09T13:28:50;101327.22;;;22.17
64916;BMP280;51427;-27.442;153.014;2022-09-09T13:31:29;101322.94;;;22.16
64916;BMP280;51427;-27.442;153.014;2022-09-09T13:33:59;101337.56;;;21.93
64916;BMP280;51427;-27.442;153.014;2022-09-09T13:36:33;101337.34;;;22.04
64916;BMP280;51427;-27.442;153.014;2022-09-09T13:39:03;101330.06;;;22.33
64916;BMP280;51427;-27.442;153.014;2022-09-09T13:41:42;101325.91;;;22.30
64916;BMP280;51427;-27.442;153.014;2022-09-09T13:44:27;101325.97;;;22.21
64916;BMP280;51427;-27.442;153.014;2022-09-09T13:47:27;101323.00;;;21.89
64916;BMP280;51427;-27.442;153.014;2022-09-09T13:49:52;101319.69;;;21.87
64916;BMP280;51427;-27.442;153.014;2022-09-09T13:52:19;101324.34;;;21.49
64916;BMP280;51427;-27.442;153.014;2022-09-09T13:54:49;101317.19;;;21.32
64916;BMP280;51427;-27.442;153.014;2022-09-09T13:57:20;101315.91;;;21.46
64916;BMP280;51427;-27.442;153.014;2022-09-09T13:59:47;101320.50;;;21.71
64916;BMP280;51427;-27.442;153.014;2022-09-09T14:02:16;101315.63;;;22.10
64916;BMP280;51427;-27.442;153.014;2022-09-09T14:04:43;101318.91;;;21.77
64916;BMP280;51427;-27.442;153.014;2022-09-09T14:07:17;101320.88;;;21.13
64916;BMP280;51427;-27.442;153.014;2022-09-09T14:09:45;101317.56;;;21.47
64916;BMP280;51427;-27.442;153.014;2022-09-09T14:12:16;101324.22;;;21.41
64916;BMP280;51427;-27.442;153.014;2022-09-09T14:14:44;101325.84;;;20.80
64916;BMP280;51427;-27.442;153.014;2022-09-09T14:17:11;101318.06;;;20.78
64916;BMP280;51427;-27.442;153.014;2022-09-09T14:19:39;101325.34;;;21.12
64916;BMP280;51427;-27.442;153.014;2022-09-09T14:22:07;101315.06;;;21.09
64916;BMP280;51427;-27.442;153.014;2022-09-09T14:24:34;101318.28;;;21.03
64916;BMP280;51427;-27.442;153.014;2022-09-09T14:27:01;101307.13;;;21.19
64916;BMP280;51427;-27.442;153.014;2022-09-09T14:29:28;101297.81;;;20.88
64916;BMP280;51427;-27.442;153.014;2022-09-09T14:31:56;101299.97;;;21.02
64916;BMP280;51427;-27.442;153.014;2022-09-09T14:34:23;101305.34;;;20.55
64916;BMP280;51427;-27.442;153.014;2022-09-09T14:36:50;101301.97;;;20.90
64916;BMP280;51427;-27.442;153.014;2022-09-09T14:39:17;101293.22;;;21.26
64916;BMP280;51427;-27.442;153.014;2022-09-09T14:41:45;101300.47;;;20.79
64916;BMP280;51427;-27.442;153.014;2022-09-09T14:44:12;101290.00;;;20.96
64916;BMP280;51427;-27.442;153.014;2022-09-09T14:46:39;101292.28;;;20.82
64916;BMP280;51427;-27.442;153.014;2022-09-09T14:49:08;101292.25;;;20.91
64916;BMP280;51427;-27.442;153.014;2022-09-09T14:51:37;101286.94;;;21.00
64916;BMP280;51427;-27.442;153.014;2022-09-09T14:54:04;101280.72;;;21.28
64916;BMP280;51427;-27.442;153.014;2022-09-09T14:56:33;101277.84;;;20.85
64916;BMP280;51427;-27.442;153.014;2022-09-09T14:59:04;101275.28;;;20.48
64916;BMP280;51427;-27.442;153.014;2022-09-09T15:01:32;101277.19;;;21.10
64916;BMP280;51427;-27.442;153.014;2022-09-09T15:04:03;101293.31;;;20.24
64916;BMP280;51427;-27.442;153.014;2022-09-09T15:06:34;101296.78;;;19.96
64916;BMP280;51427;-27.442;153.014;2022-09-09T15:09:05;101301.41;;;19.65
64916;BMP280;51427;-27.442;153.014;2022-09-09T15:11:36;101288.88;;;20.15
64916;BMP280;51427;-27.442;153.014;2022-09-09T15:14:08;101294.56;;;20.39
64916;BMP280;51427;-27.442;153.014;2022-09-09T15:16:36;101282.19;;;20.58
64916;BMP280;51427;-27.442;153.014;2022-09-09T15:19:03;101278.41;;;20.80
64916;BMP280;51427;-27.442;153.014;2022-09-09T15:21:33;101287.03;;;20.53
64916;BMP280;51427;-27.442;153.014;2022-09-09T15:24:00;101287.56;;;20.85
64916;BMP280;51427;-27.442;153.014;2022-09-09T15:26:28;101295.28;;;20.96
64916;BMP280;51427;-27.442;153.014;2022-09-09T15:28:56;101295.09;;;20.71
64916;BMP280;51427;-27.442;153.014;2022-09-09T15:31:28;101301.75;;;20.28
64916;BMP280;51427;-27.442;153.014;2022-09-09T15:33:57;101288.69;;;20.73
64916;BMP280;51427;-27.442;153.014;2022-09-09T15:36:31;101284.53;;;20.61
64916;BMP280;51427;-27.442;153.014;2022-09-09T15:39:00;101284.56;;;20.42
64916;BMP280;51427;-27.442;153.014;2022-09-09T15:41:29;101296.00;;;20.88
64916;BMP280;51427;-27.442;153.014;2022-09-09T15:43:58;101298.66;;;20.79
64916;BMP280;51427;-27.442;153.014;2022-09-09T15:46:38;101295.09;;;20.52
64916;BMP280;51427;-27.442;153.014;2022-09-09T15:49:16;101296.09;;;20.13
64916;BMP280;51427;-27.442;153.014;2022-09-09T15:51:50;101292.88;;;20.38
64916;BMP280;51427;-27.442;153.014;2022-09-09T15:54:19;101287.91;;;20.54
64916;BMP280;51427;-27.442;153.014;2022-09-09T15:56:49;101286.09;;;20.45
64916;BMP280;51427;-27.442;153.014;2022-09-09T15:59:17;101287.31;;;20.50
64916;BMP280;51427;-27.442;153.014;2022-09-09T16:01:44;101292.38;;;20.16